ADDS METAR Data INFO
IDs: Format: Raw Decoded Include TAF

Data at: 1533 UTC 25 Feb 2018

KBKT 251515Z AUTO 24014KT 10SM SCT026 BKN070 OVC085 20/17 A3002 RMK AO1 T01950166
KBKT 251455Z AUTO 24012G20KT 10SM BKN028 BKN035 OVC100 20/17 A3002 RMK AO1 T01950173
KBKT 251435Z AUTO 23010G18KT 10SM SCT036 SCT075 OVC100 19/18 A3000 RMK AO1 T01930175
KBKT 251415Z AUTO 22011G20KT 10SM OVC100 19/18 A2998 RMK AO1 T01900179
KBKT 251355Z AUTO 20014G21KT 10SM BKN110 19/18 A2997 RMK AO1 T01850180
KBKT 251335Z AUTO 19016G21KT 10SM CLR 18/18 A2997 RMK AO1 T01800180
KBKT 251315Z AUTO 20014G18KT 10SM CLR 18/18 A2997 RMK AO1 T01750175
KBKT 251255Z AUTO 19012G18KT 10SM CLR 17/17 A2996 RMK AO1 T01740174
KBKT 251235Z AUTO 20015G19KT 10SM CLR 16/16 A2997 RMK AO1 T01600160
KBKT 251215Z AUTO 19011G18KT 10SM CLR 15/15 A2997 RMK AO1 T01540154
KBKT 251155Z AUTO 20012G18KT 10SM CLR 15/15 A2997 RMK AO1 T01500150
KBKT 251135Z AUTO 20013G16KT 10SM CLR 14/14 A2997 RMK AO1 T01440144
KBKT 251115Z AUTO 18005KT 10SM CLR 14/14 A2997 RMK AO1 T01350135
KBKT 251055Z AUTO 17004KT 1 3/4SM VV007 12/12 A2997 RMK AO1 T01210121
KBKT 251035Z AUTO 16004KT 1/2SM VV005 13/13 A2997 RMK AO1 T01290129
KBKT 251015Z AUTO 00000KT 1/2SM VV005 12/12 A2998 RMK AO1 T01230123
KBKT 250955Z AUTO 00000KT 1/2SM SCT005 BKN016 BKN021 12/12 A2998 RMK AO1 T01220122
KBKT 250935Z AUTO 00000KT 3/4SM SCT005 BKN019 A2998 RMK AO1 VIS 1/4V2
KBKT 250915Z AUTO 13003KT 1/2SM BKN021 A2999 RMK AO1
KBKT 250855Z AUTO 00000KT 2SM CLR A3000 RMK AO1
KBKT 250835Z AUTO 00000KT 2 1/2SM CLR A3001 RMK AO1
KBKT 250815Z AUTO 00000KT 5SM CLR A3000 RMK AO1
KBKT 250755Z AUTO 00000KT 5SM CLR A3001 RMK AO1
KBKT 250735Z AUTO 00000KT 7SM SCT110 A3002 RMK AO1
KBKT 250715Z AUTO 06003KT 7SM SCT110 13/13 A3002 RMK AO1 T01300130
KBKT 250655Z AUTO 00000KT 10SM SCT110 A3003 RMK AO1
KBKT 250635Z AUTO 00000KT 10SM CLR 15/15 A3004 RMK AO1 T01450145
KBKT 250615Z AUTO 31005KT 10SM SCT048 BKN110 15/15 A3004 RMK AO1 T01500150
KBKT 250555Z AUTO 30006KT 10SM SCT050 OVC110 16/16 A3005 RMK AO1 T01550155 10195 20153
KBKT 250535Z AUTO 00000KT 10SM SCT050 OVC110 16/16 A3006 RMK AO1 T01580158
KBKT 250515Z AUTO 34005KT 10SM BKN050 OVC120 16/16 A3006 RMK AO1 T01610161
KBKT 250455Z AUTO 25004KT 10SM BKN055 BKN120 16/16 A3006 RMK AO1 T01610161 402440066
KBKT 250435Z AUTO 30006KT 10SM OVC055 16/16 A3005 RMK AO1 T01590159
KBKT 250415Z AUTO 01004KT 10SM SCT055 15/15 A3005 RMK AO1 T01530153
KBKT 250355Z AUTO 34004KT 10SM CLR 16/16 A3005 RMK AO1 T01580158
KBKT 250335Z AUTO 00000KT 10SM CLR 17/17 A3005 RMK AO1 T01690169
KBKT 250315Z AUTO 17005KT 10SM SCT100 18/17 A3005 RMK AO1 T01760173
KBKT 250255Z AUTO 18005KT 10SM SCT100 18/17 A3005 RMK AO1 T01760172
KBKT 250235Z AUTO 17006KT 10SM CLR 18/17 A3005 RMK AO1 T01800171
KBKT 250215Z AUTO 17005KT 10SM CLR 18/17 A3005 RMK AO1 T01800171
KBKT 250155Z AUTO 18005KT 10SM CLR 18/17 A3006 RMK AO1 T01830167
KBKT 250135Z AUTO 18006KT 10SM CLR 19/17 A3006 RMK AO1 T01880165
KBKT 250115Z AUTO 17005KT 10SM SCT100 19/17 A3006 RMK AO1 T01870165
KBKT 250055Z AUTO 17007KT 120V190 10SM OVC100 20/16 A3006 RMK AO1 T01950162
KBKT 250035Z AUTO 17007KT 10SM OVC100 19/17 A3006 RMK AO1 T01890169
KBKT 250015Z AUTO 12005KT 10SM SCT047 BKN100 19/16 A3006 RMK AO1 T01870163
KBKT 242355Z AUTO 13004KT 10SM BKN100 OVC120 20/16 A3006 RMK AO1 T01960162 10244 20193
KBKT 242335Z AUTO 16006KT 10SM SCT090 BKN110 20/16 A3006 RMK AO1 T01960158
KBKT 242315Z AUTO 19009KT 10SM SCT100 OVC120 20/16 A3006 RMK AO1 T02020155
KBKT 242255Z AUTO 19006KT 10SM SCT100 OVC120 21/16 A3005 RMK AO1 T02090155
KBKT 242235Z AUTO 19006KT 10SM SCT100 OVC120 22/16 A3005 RMK AO1 T02150155
KBKT 242215Z AUTO 19008KT 10SM BKN120 22/15 A3004 RMK AO1 T02150154
KBKT 242155Z AUTO 20007KT 10SM SCT085 SCT120 22/15 A3004 RMK AO1 T02200150
KBKT 242135Z AUTO 21008G17KT 10SM BKN085 23/15 A3005 RMK AO1 T02280149
KBKT 242115Z AUTO 20009KT 10SM SCT075 OVC085 23/15 A3005 RMK AO1 T02300151
KBKT 242055Z AUTO 22008G21KT 10SM OVC075 23/15 A3005 RMK AO1 T02270148
KBKT 242035Z AUTO 22010G14KT 10SM OVC075 23/15 A3006 RMK AO1 T02300149
KBKT 242015Z AUTO 22010KT 10SM SCT039 OVC080 23/15 A3007 RMK AO1 T02310152
KBKT 241955Z AUTO 22008G14KT 10SM SCT039 SCT045 OVC100 23/16 A3007 RMK AO1 T02340155
KBKT 241935Z AUTO 23012G17KT 10SM OVC040 23/16 A3007 RMK AO1 T02310156
KBKT 241915Z AUTO 22008KT 10SM BKN036 OVC042 23/16 A3008 RMK AO1 T02300155
KBKT 241855Z AUTO 22009KT 10SM BKN036 OVC045 24/16 A3008 RMK AO1 T02380156
KBKT 241835Z AUTO 23011KT 10SM SCT034 BKN041 OVC047 24/16 A3009 RMK AO1 T02390158
KBKT 241815Z AUTO 24013G16KT 10SM BKN035 OVC040 24/16 A3010 RMK AO1 T02360157
KBKT 241755Z AUTO 23011G21KT 10SM SCT027 BKN033 BKN042 24/16 A3010 RMK AO1 T02380161 10244 20100
KBKT 241735Z AUTO 23014G23KT 10SM BKN028 BKN035 24/16 A3012 RMK AO1 T02380162
KBKT 241715Z AUTO 24012G17KT 10SM BKN025 BKN030 23/16 A3013 RMK AO1 T02270164
KBKT 241655Z AUTO 22013G22KT 10SM SCT023 22/17 A3014 RMK AO1 T02220170
KBKT 241635Z AUTO 22013G19KT 10SM CLR 21/17 A3015 RMK AO1 T02130170
KBKT 241615Z AUTO 23010G16KT 10SM CLR 19/18 A3015 RMK AO1 T01930176
KBKT 241555Z AUTO 21010G16KT 10SM SCT008 18/18 A3016 RMK AO1 T01800177
KBKT 241535Z AUTO 21011G16KT 10SM BKN008 OVC012 17/17 A3016 RMK AO1 T01730173
KBKT 241515Z AUTO 21009G15KT 10SM OVC006 16/16 A3017 RMK AO1 T01610161
KBKT 241455Z AUTO 22010KT 10SM OVC004 16/16 A3018 RMK AO1 T01550155
KBKT 241435Z AUTO 22010KT 10SM OVC004 15/15 A3018 RMK AO1 T01480148
KBKT 241415Z AUTO 20009KT 10SM OVC002 14/14 A3018 RMK AO1 T01420142
KBKT 241355Z AUTO 20008KT 4SM OVC002 13/13 A3018 RMK AO1 T01320132
KBKT 241335Z AUTO 19008KT 1 3/4SM OVC002 13/13 A3018 RMK AO1 T01320132
KBKT 241315Z AUTO 21006KT 1/4SM OVC002 13/13 A3018 RMK AO1 T01260126
KBKT 241255Z AUTO 20006KT 1/4SM OVC002 12/12 A3018 RMK AO1 T01170117
KBKT 241235Z AUTO 21005KT 1/4SM OVC002 11/11 A3018 RMK AO1 T01110111
KBKT 241215Z AUTO 21005KT M1/4SM OVC002 11/11 A3018 RMK AO1 T01050105
KBKT 241155Z AUTO 20005KT M1/4SM OVC002 10/10 A3017 RMK AO1 T00990099 10099 20072
KBKT 241135Z AUTO 21005KT 1/4SM OVC002 10/10 A3017 RMK AO1 T00960096
KBKT 241115Z AUTO 22004KT 1/2SM OVC002 09/09 A3018 RMK AO1 T00910091
KBKT 241055Z AUTO 23003KT 1/4SM OVC002 09/09 A3018 RMK AO1 T00900090
KBKT 241035Z AUTO 21003KT 1/4SM OVC002 09/09 A3018 RMK AO1 T00880088
KBKT 241015Z AUTO 22004KT 1/4SM OVC002 09/09 A3019 RMK AO1 T00850085
KBKT 240955Z AUTO 21004KT 1/4SM OVC002 09/09 A3019 RMK AO1 T00850085
KBKT 240935Z AUTO 22004KT 1/2SM OVC002 08/08 A3020 RMK AO1 T00820082
KBKT 240915Z AUTO 21005KT 3/4SM OVC004 08/08 A3020 RMK AO1 T00810081
KBKT 240855Z AUTO 19004KT 1/2SM OVC004 09/09 A3020 RMK AO1 T00850085
KBKT 240835Z AUTO 27008KT 1/2SM OVC002 08/08 A3021 RMK AO1 T00830083
KBKT 240815Z AUTO 30006KT 3/4SM OVC002 08/08 A3022 RMK AO1 T00770077
KBKT 240755Z AUTO 21003KT 1/4SM BKN002 OVC007 07/07 A3021 RMK AO1 T00740074
KBKT 240735Z AUTO 20004KT 2SM SCT004 OVC007 07/07 A3022 RMK AO1 T00730073
KBKT 240715Z AUTO 19004KT 5SM OVC005 09/09 A3023 RMK AO1 T00850085
KBKT 240655Z AUTO 00000KT 5SM OVC007 08/08 A3024 RMK AO1 T00830083
KBKT 240635Z AUTO 13003KT 7SM OVC007 08/08 A3024 RMK AO1 T00770077
KBKT 240615Z AUTO 00000KT 10SM OVC009 08/08 A3025 RMK AO1 T00760076
KBKT 240555Z AUTO 27007KT 3SM BKN011 07/07 A3026 RMK AO1 T00660066
KBKT 240535Z AUTO 00000KT 7SM SCT013 SCT019 07/07 A3027 RMK AO1 T00720072
KBKT 240515Z AUTO 27007KT 5SM SCT019 SCT024 07/07 A3027 RMK AO1 T00740074
KBKT 240455Z AUTO 28006KT 7SM SCT021 07/07 A3027 RMK AO1 T00700070
KBKT 240435Z AUTO 00000KT 3SM CLR 08/08 A3028 RMK AO1 T00810081
KBKT 240415Z AUTO 00000KT 5SM SCT020 08/08 A3029 RMK AO1 T00810081
KBKT 240355Z AUTO 18006KT 1/4SM OVC020 07/07 A3030 RMK AO1 T00730073
KBKT 240335Z AUTO 00000KT 1/2SM OVC020 08/08 A3031 RMK AO1 T00760076